Time;durP1;ratioP1;P1;durP2;ratioP2;P2;SDS_P1;SDS_P2;PMS_P1;PMS_P2;Temp;Humidity;BMP_temperature;BMP_pressure;BME280_temperature;BME280_humidity;BME280_pressure;Samples;Min_cycle;Max_cycle;Signal;HPM_P1;HPM_P2
2022/04/30 00:00:50;;;;;;;11.20;8.07;;;;;;;;;;5157651;27;20019;-81
2022/04/30 00:03:16;;;;;;;11.10;7.95;;;;;;;;;;5155591;27;20024;-82
2022/04/30 00:05:42;;;;;;;10.27;7.80;;;;;;;;;;5116276;28;20103;-82
2022/04/30 00:08:08;;;;;;;11.32;8.18;;;;;;;;;;5113466;28;20530;-82
2022/04/30 00:10:38;;;;;;;13.27;8.15;;;;;;;;;;5112603;28;20058;-82
2022/04/30 00:13:10;;;;;;;11.98;8.52;;;;;;;;;;5113819;28;20030;-82
2022/04/30 00:15:36;;;;;;;11.77;8.50;;;;;;;;;;5130439;28;20019;-82
2022/04/30 00:18:02;;;;;;;10.43;8.13;;;;;;;;;;5136605;28;20110;-82
2022/04/30 00:20:28;;;;;;;11.45;8.25;;;;;;;;;;5134714;28;20031;-82
2022/04/30 00:22:54;;;;;;;13.05;8.15;;;;;;;;;;5136171;28;20088;-82
2022/04/30 00:25:21;;;;;;;10.10;7.60;;;;;;;;;;5128882;28;20491;-82
2022/04/30 00:27:47;;;;;;;11.13;8.25;;;;;;;;;;5133461;28;20032;-82
2022/04/30 00:30:14;;;;;;;15.07;8.88;;;;;;;;;;5135673;28;20026;-82
2022/04/30 00:32:40;;;;;;;10.65;8.48;;;;;;;;;;5116645;28;20016;-82
2022/04/30 00:35:07;;;;;;;10.75;8.55;;;;;;;;;;5119138;28;20027;-82
2022/04/30 00:37:33;;;;;;;11.35;8.65;;;;;;;;;;5134962;27;20026;-81
2022/04/30 00:39:59;;;;;;;10.52;7.90;;;;;;;;;;5157234;27;20023;-82
2022/04/30 00:42:25;;;;;;;9.93;7.70;;;;;;;;;;5141721;27;20046;-82
2022/04/30 00:44:51;;;;;;;11.20;8.90;;;;;;;;;;5143699;27;20028;-81
2022/04/30 00:47:18;;;;;;;11.55;8.40;;;;;;;;;;5162228;27;20022;-81
2022/04/30 00:49:45;;;;;;;11.55;9.00;;;;;;;;;;5161652;27;20010;-82
2022/04/30 00:52:13;;;;;;;11.10;7.93;;;;;;;;;;5147474;27;20524;-82
2022/04/30 00:54:40;;;;;;;12.80;9.15;;;;;;;;;;5133808;27;20047;-82
2022/04/30 00:57:09;;;;;;;11.15;8.63;;;;;;;;;;5115759;28;20525;-82
2022/04/30 00:59:39;;;;;;;11.48;8.05;;;;;;;;;;5115527;28;20024;-82
2022/04/30 01:02:05;;;;;;;11.02;7.85;;;;;;;;;;5131322;27;20045;-82
2022/04/30 01:04:31;;;;;;;11.70;8.90;;;;;;;;;;5114963;27;20015;-82
2022/04/30 01:07:00;;;;;;;11.57;8.88;;;;;;;;;;5122148;27;20027;-82
2022/04/30 01:09:31;;;;;;;11.63;8.10;;;;;;;;;;5116066;27;20016;-81
2022/04/30 01:12:03;;;;;;;11.20;8.30;;;;;;;;;;5114147;28;20067;-82
2022/04/30 01:14:31;;;;;;;12.30;8.63;;;;;;;;;;5116809;27;20016;-82
2022/04/30 01:16:57;;;;;;;11.52;9.10;;;;;;;;;;5114414;28;20023;-82
2022/04/30 01:19:23;;;;;;;11.45;8.13;;;;;;;;;;5114331;28;20027;-82
2022/04/30 01:21:51;;;;;;;11.25;8.00;;;;;;;;;;5118800;27;20031;-82
2022/04/30 01:24:27;;;;;;;12.40;8.55;;;;;;;;;;5116543;27;20028;-82
2022/04/30 01:26:55;;;;;;;11.52;8.60;;;;;;;;;;5115605;28;20028;-82
2022/04/30 01:29:23;;;;;;;12.20;8.73;;;;;;;;;;5115302;28;20045;-82
2022/04/30 01:37:25;;;;;;;10.43;8.73;;;;;;;;;;5119218;27;20031;-82
2022/04/30 01:39:57;;;;;;;11.68;9.02;;;;;;;;;;5136299;27;20454;-82
2022/04/30 01:42:24;;;;;;;15.23;9.47;;;;;;;;;;5134519;27;20027;-82
2022/04/30 01:44:50;;;;;;;10.93;8.55;;;;;;;;;;5136060;27;20027;-82
2022/04/30 01:47:16;;;;;;;14.07;9.00;;;;;;;;;;5136288;27;20019;-82
2022/04/30 01:49:43;;;;;;;11.23;8.60;;;;;;;;;;5122934;27;20023;-82
2022/04/30 01:52:09;;;;;;;11.65;8.98;;;;;;;;;;5132173;27;20031;-82
2022/04/30 01:54:36;;;;;;;11.38;8.90;;;;;;;;;;5122300;27;20141;-82
2022/04/30 01:57:02;;;;;;;11.77;9.15;;;;;;;;;;5136650;27;20490;-82
2022/04/30 01:59:28;;;;;;;11.25;8.95;;;;;;;;;;5135923;27;20134;-82
2022/04/30 02:01:55;;;;;;;12.00;8.80;;;;;;;;;;5130834;27;20110;-82
2022/04/30 02:04:22;;;;;;;11.40;8.75;;;;;;;;;;5136123;27;20031;-82
2022/04/30 02:06:48;;;;;;;11.85;9.10;;;;;;;;;;5115907;28;20097;-82
2022/04/30 02:09:15;;;;;;;12.40;9.35;;;;;;;;;;5117689;27;20055;-82
2022/04/30 02:11:44;;;;;;;10.88;8.30;;;;;;;;;;5129509;27;20044;-81
2022/04/30 02:14:14;;;;;;;12.95;9.13;;;;;;;;;;5115817;28;20066;-82
2022/04/30 02:16:41;;;;;;;11.00;8.20;;;;;;;;;;5115620;28;20076;-82
2022/04/30 02:19:07;;;;;;;12.50;9.02;;;;;;;;;;5116533;27;20028;-81
2022/04/30 02:21:34;;;;;;;11.40;8.63;;;;;;;;;;5114289;28;20031;-82
2022/04/30 02:24:00;;;;;;;13.02;9.27;;;;;;;;;;5115024;28;20024;-82
2022/04/30 02:26:27;;;;;;;12.65;9.18;;;;;;;;;;5118072;27;20378;-82
2022/04/30 02:28:55;;;;;;;12.20;8.82;;;;;;;;;;5134778;27;20028;-82
2022/04/30 02:31:22;;;;;;;11.75;8.77;;;;;;;;;;5135573;27;20104;-82
2022/04/30 02:33:48;;;;;;;11.25;8.65;;;;;;;;;;5117882;27;20030;-82
2022/04/30 02:36:17;;;;;;;11.10;8.75;;;;;;;;;;5117768;27;20027;-82
2022/04/30 02:38:43;;;;;;;11.73;8.68;;;;;;;;;;5135974;27;20030;-82
2022/04/30 02:41:11;;;;;;;11.25;8.63;;;;;;;;;;5136363;27;20028;-82
2022/04/30 02:43:38;;;;;;;12.32;8.50;;;;;;;;;;5134343;27;20385;-82
2022/04/30 02:46:04;;;;;;;11.02;9.35;;;;;;;;;;5135902;27;20019;-82
2022/04/30 02:48:30;;;;;;;11.93;8.63;;;;;;;;;;5132002;27;20053;-82
2022/04/30 02:51:00;;;;;;;11.27;8.52;;;;;;;;;;5135179;27;20030;-82
2022/04/30 02:53:26;;;;;;;12.85;9.10;;;;;;;;;;5134415;27;20054;-82
2022/04/30 02:55:52;;;;;;;11.98;8.95;;;;;;;;;;5135804;27;20477;-82
2022/04/30 03:01:03;;;;;;;12.57;8.93;;;;;;;;;;5115911;28;20035;-82
2022/04/30 03:03:29;;;;;;;11.02;8.18;;;;;;;;;;5126892;27;20079;-82
2022/04/30 03:05:56;;;;;;;13.00;9.30;;;;;;;;;;5133996;27;20016;-82
2022/04/30 03:08:23;;;;;;;13.05;9.48;;;;;;;;;;5136368;27;20023;-82
2022/04/30 03:10:50;;;;;;;11.95;9.02;;;;;;;;;;5134602;27;20047;-82
2022/04/30 03:13:20;;;;;;;11.32;9.02;;;;;;;;;;5128596;27;20478;-82
2022/04/30 03:15:47;;;;;;;12.43;9.05;;;;;;;;;;5135709;27;20019;-82
2022/04/30 03:23:43;;;;;;;13.05;9.10;;;;;;;;;;5115548;27;20050;-82
2022/04/30 03:26:10;;;;;;;12.27;9.50;;;;;;;;;;5122560;27;20118;-82
2022/04/30 03:28:37;;;;;;;11.60;9.07;;;;;;;;;;5135841;27;20470;-81
2022/04/30 03:31:07;;;;;;;13.80;10.05;;;;;;;;;;5134259;27;20478;-82
2022/04/30 03:33:33;;;;;;;12.95;9.65;;;;;;;;;;5131367;27;20027;-82
2022/04/30 03:35:59;;;;;;;11.48;9.10;;;;;;;;;;5135685;27;20038;-82
2022/04/30 03:38:25;;;;;;;13.52;9.30;;;;;;;;;;5133528;27;20034;-82
2022/04/30 03:40:51;;;;;;;13.02;9.18;;;;;;;;;;5115062;28;20031;-82
2022/04/30 03:43:18;;;;;;;12.30;9.50;;;;;;;;;;5126954;27;20094;-82
2022/04/30 03:45:44;;;;;;;11.73;8.60;;;;;;;;;;5135354;27;20106;-82
2022/04/30 03:48:12;;;;;;;13.73;9.43;;;;;;;;;;5131399;27;20102;-82
2022/04/30 03:50:38;;;;;;;13.20;9.65;;;;;;;;;;5115182;28;20068;-82
2022/04/30 03:53:04;;;;;;;13.80;9.52;;;;;;;;;;5118372;27;20027;-82
2022/04/30 03:55:30;;;;;;;13.05;9.57;;;;;;;;;;5115155;28;20043;-82
2022/04/30 03:57:56;;;;;;;13.07;9.85;;;;;;;;;;5113537;28;20063;-82
2022/04/30 04:00:23;;;;;;;12.25;8.95;;;;;;;;;;5115760;27;20035;-82
2022/04/30 04:02:49;;;;;;;13.32;10.07;;;;;;;;;;5134213;27;20020;-82
2022/04/30 04:05:17;;;;;;;12.88;9.50;;;;;;;;;;5123997;28;20444;-82
2022/04/30 04:07:43;;;;;;;12.38;9.45;;;;;;;;;;5114787;28;20103;-82
2022/04/30 04:10:10;;;;;;;12.93;9.88;;;;;;;;;;5114521;28;20074;-82
2022/04/30 04:12:37;;;;;;;13.48;9.93;;;;;;;;;;5134492;28;20027;-82
2022/04/30 04:17:49;;;;;;;13.55;9.70;;;;;;;;;;5120571;27;20056;-82
2022/04/30 04:20:18;;;;;;;11.68;9.35;;;;;;;;;;5117999;28;20011;-82
2022/04/30 04:22:44;;;;;;;11.27;8.95;;;;;;;;;;5126278;27;20023;-82
2022/04/30 04:27:55;;;;;;;12.65;9.48;;;;;;;;;;5120376;27;20039;-82
2022/04/30 04:30:26;;;;;;;15.55;10.02;;;;;;;;;;5118591;27;20024;-82
2022/04/30 04:32:53;;;;;;;12.38;9.75;;;;;;;;;;5122225;27;20080;-82
2022/04/30 04:35:19;;;;;;;12.50;9.55;;;;;;;;;;5133030;27;20081;-82
2022/04/30 04:37:46;;;;;;;15.50;10.32;;;;;;;;;;5129233;27;20023;-82
2022/04/30 04:40:12;;;;;;;13.70;9.90;;;;;;;;;;5121388;27;20021;-82
2022/04/30 04:42:39;;;;;;;13.27;9.77;;;;;;;;;;5124367;27;20023;-82
2022/04/30 04:45:05;;;;;;;13.13;9.93;;;;;;;;;;5125254;27;20031;-82
2022/04/30 04:47:34;;;;;;;13.18;9.95;;;;;;;;;;5130351;27;20038;-82
2022/04/30 04:50:00;;;;;;;14.10;10.43;;;;;;;;;;5120392;27;20031;-82
2022/04/30 04:52:27;;;;;;;13.07;9.90;;;;;;;;;;5124662;27;20042;-82
2022/04/30 04:54:53;;;;;;;12.63;10.48;;;;;;;;;;5131584;27;20027;-82
2022/04/30 04:57:19;;;;;;;13.55;10.15;;;;;;;;;;5120948;27;20039;-82
2022/04/30 04:59:45;;;;;;;14.13;10.27;;;;;;;;;;5126217;27;20398;-82
2022/04/30 05:02:11;;;;;;;13.73;10.40;;;;;;;;;;5126959;27;20024;-82
2022/04/30 05:04:37;;;;;;;12.75;10.32;;;;;;;;;;5119871;27;20015;-82
2022/04/30 05:07:03;;;;;;;14.65;10.55;;;;;;;;;;5132577;27;20047;-82
2022/04/30 05:09:31;;;;;;;14.20;10.98;;;;;;;;;;5137056;27;20043;-82
2022/04/30 05:12:01;;;;;;;14.77;10.85;;;;;;;;;;5124029;27;20054;-82
2022/04/30 05:14:28;;;;;;;17.55;11.75;;;;;;;;;;5126788;27;20501;-82
2022/04/30 05:16:54;;;;;;;16.38;11.55;;;;;;;;;;5125398;27;20027;-82
2022/04/30 05:19:20;;;;;;;15.15;11.27;;;;;;;;;;5126900;27;20122;-82
2022/04/30 05:21:46;;;;;;;17.25;11.55;;;;;;;;;;5131665;27;20024;-82
2022/04/30 05:24:12;;;;;;;14.95;10.70;;;;;;;;;;5127997;27;20038;-82
2022/04/30 05:26:38;;;;;;;16.33;11.82;;;;;;;;;;5133768;27;20665;-82
2022/04/30 05:29:04;;;;;;;17.35;11.98;;;;;;;;;;5117163;28;20062;-82
2022/04/30 05:31:30;;;;;;;14.65;12.05;;;;;;;;;;5122708;27;20026;-82
2022/04/30 05:33:56;;;;;;;14.38;11.48;;;;;;;;;;5132257;27;20023;-82
2022/04/30 05:36:22;;;;;;;15.52;12.25;;;;;;;;;;5130138;27;20046;-82
2022/04/30 05:38:48;;;;;;;16.73;12.35;;;;;;;;;;5122123;27;20031;-82
2022/04/30 05:41:14;;;;;;;16.05;12.02;;;;;;;;;;5121267;27;20538;-82
2022/04/30 05:43:40;;;;;;;16.90;12.07;;;;;;;;;;5129065;27;20015;-82
2022/04/30 05:46:07;;;;;;;16.25;11.88;;;;;;;;;;5137367;27;20034;-82
2022/04/30 05:48:33;;;;;;;15.75;11.82;;;;;;;;;;5127678;27;20016;-82
2022/04/30 05:51:00;;;;;;;14.10;11.50;;;;;;;;;;5123824;27;20048;-82
2022/04/30 05:53:26;;;;;;;15.88;12.55;;;;;;;;;;5115962;27;20080;-82
2022/04/30 05:55:52;;;;;;;15.73;11.57;;;;;;;;;;5133085;27;20114;-82
2022/04/30 05:58:18;;;;;;;15.10;11.60;;;;;;;;;;5134960;27;20027;-82
2022/04/30 06:00:45;;;;;;;17.45;14.38;;;;;;;;;;5136042;27;20031;-82
2022/04/30 06:03:11;;;;;;;20.35;14.05;;;;;;;;;;5123239;27;20024;-82
2022/04/30 06:05:37;;;;;;;17.50;12.82;;;;;;;;;;5125955;27;20367;-82
2022/04/30 06:08:03;;;;;;;16.45;12.90;;;;;;;;;;5137143;27;20015;-82
2022/04/30 06:10:29;;;;;;;17.38;12.38;;;;;;;;;;5118621;27;20062;-82
2022/04/30 06:12:56;;;;;;;16.40;11.88;;;;;;;;;;5132056;27;20027;-82
2022/04/30 06:15:22;;;;;;;17.95;11.88;;;;;;;;;;5125434;27;20185;-82
2022/04/30 06:17:48;;;;;;;15.73;11.98;;;;;;;;;;5130679;27;20043;-83
2022/04/30 06:20:14;;;;;;;18.45;12.85;;;;;;;;;;5123591;27;20027;-82
2022/04/30 06:22:40;;;;;;;16.05;11.68;;;;;;;;;;5137377;27;20026;-82
2022/04/30 06:25:06;;;;;;;16.40;12.23;;;;;;;;;;5135979;27;20106;-82
2022/04/30 06:27:33;;;;;;;14.63;12.05;;;;;;;;;;5135799;27;20512;-82
2022/04/30 06:29:59;;;;;;;17.15;12.18;;;;;;;;;;5133747;27;20035;-82
2022/04/30 06:32:26;;;;;;;14.25;10.82;;;;;;;;;;5135274;27;20524;-82
2022/04/30 06:34:52;;;;;;;20.98;11.52;;;;;;;;;;5130329;27;20054;-82
2022/04/30 06:37:18;;;;;;;16.05;10.98;;;;;;;;;;5116391;28;20159;-82
2022/04/30 06:39:45;;;;;;;14.07;10.48;;;;;;;;;;5121511;27;20027;-82
2022/04/30 06:42:11;;;;;;;14.73;10.93;;;;;;;;;;5117555;28;20049;-82
2022/04/30 06:44:37;;;;;;;13.55;10.70;;;;;;;;;;5132965;27;20034;-82
2022/04/30 06:47:03;;;;;;;13.95;10.75;;;;;;;;;;5127726;27;20027;-82
2022/04/30 06:49:29;;;;;;;14.27;11.45;;;;;;;;;;5127860;27;20020;-82
2022/04/30 06:51:55;;;;;;;16.55;11.02;;;;;;;;;;5127966;27;20095;-82
2022/04/30 06:57:12;;;;;;;14.38;10.75;;;;;;;;;;5135996;27;20053;-84
2022/04/30 06:59:41;;;;;;;16.33;11.30;;;;;;;;;;5135439;27;20351;-82
2022/04/30 07:02:22;;;;;;;15.35;11.90;;;;;;;;;;5130201;27;20031;-82
2022/04/30 07:04:50;;;;;;;14.50;11.90;;;;;;;;;;5123519;27;20015;-82
2022/04/30 07:07:16;;;;;;;17.02;12.88;;;;;;;;;;5137505;27;20043;-82
2022/04/30 07:09:42;;;;;;;14.65;12.85;;;;;;;;;;5137264;27;20417;-82
2022/04/30 07:12:09;;;;;;;13.73;11.27;;;;;;;;;;5137946;27;20072;-82
2022/04/30 07:14:36;;;;;;;14.05;12.02;;;;;;;;;;5130086;27;20020;-82
2022/04/30 07:17:06;;;;;;;16.65;11.57;;;;;;;;;;5115615;28;20020;-82
2022/04/30 07:19:32;;;;;;;18.30;11.98;;;;;;;;;;5116948;28;20024;-82
2022/04/30 07:21:58;;;;;;;16.73;11.98;;;;;;;;;;5119955;28;20020;-82
2022/04/30 07:24:24;;;;;;;16.10;12.38;;;;;;;;;;5120175;28;20026;-82
2022/04/30 07:26:51;;;;;;;16.17;11.75;;;;;;;;;;5116820;28;20049;-82
2022/04/30 07:29:19;;;;;;;16.17;11.50;;;;;;;;;;5128160;27;20019;-81
2022/04/30 07:31:45;;;;;;;15.80;11.90;;;;;;;;;;5137352;27;20500;-82
2022/04/30 07:34:12;;;;;;;16.00;12.70;;;;;;;;;;5136677;27;20519;-82
2022/04/30 07:36:38;;;;;;;16.35;11.60;;;;;;;;;;5136726;27;20424;-82
2022/04/30 07:39:04;;;;;;;14.52;12.02;;;;;;;;;;5137503;27;20037;-82
2022/04/30 07:41:31;;;;;;;16.85;12.70;;;;;;;;;;5131343;27;20030;-82
2022/04/30 07:43:57;;;;;;;15.25;11.85;;;;;;;;;;5126232;27;20011;-82
2022/04/30 07:46:23;;;;;;;17.30;12.38;;;;;;;;;;5133093;27;20019;-82
2022/04/30 07:48:50;;;;;;;16.73;13.30;;;;;;;;;;5133619;27;20026;-83
2022/04/30 07:51:33;;;;;;;14.75;12.20;;;;;;;;;;5136466;27;20054;-83
2022/04/30 07:53:59;;;;;;;14.98;11.93;;;;;;;;;;5134661;27;20023;-83
2022/04/30 07:56:25;;;;;;;15.32;12.45;;;;;;;;;;5123984;27;20038;-84
2022/04/30 07:58:51;;;;;;;15.70;12.32;;;;;;;;;;5115625;28;20106;-83
2022/04/30 08:01:17;;;;;;;15.38;12.32;;;;;;;;;;5119634;28;20072;-83
2022/04/30 08:03:44;;;;;;;13.25;10.85;;;;;;;;;;5134373;27;20075;-83
2022/04/30 08:06:10;;;;;;;16.05;12.88;;;;;;;;;;5124553;27;20024;-83
2022/04/30 08:08:36;;;;;;;15.63;12.48;;;;;;;;;;5132935;28;20023;-83
2022/04/30 08:11:02;;;;;;;15.38;12.10;;;;;;;;;;5117568;28;20047;-83
2022/04/30 08:13:29;;;;;;;16.58;11.60;;;;;;;;;;5132094;28;20460;-83
2022/04/30 08:15:55;;;;;;;16.48;12.52;;;;;;;;;;5131349;28;20091;-83
2022/04/30 08:18:21;;;;;;;14.90;11.98;;;;;;;;;;5131990;28;20046;-83
2022/04/30 08:20:47;;;;;;;15.50;12.25;;;;;;;;;;5122289;27;20122;-83
2022/04/30 08:23:13;;;;;;;16.10;12.93;;;;;;;;;;5132252;28;20019;-83
2022/04/30 08:25:40;;;;;;;15.07;11.52;;;;;;;;;;5130119;28;20030;-83
2022/04/30 08:28:06;;;;;;;14.55;11.60;;;;;;;;;;5135139;28;20057;-83
2022/04/30 08:30:32;;;;;;;14.93;12.15;;;;;;;;;;5134123;28;20031;-83
2022/04/30 08:32:59;;;;;;;14.52;12.50;;;;;;;;;;5127140;28;20020;-83
2022/04/30 08:35:25;;;;;;;19.10;12.52;;;;;;;;;;5129404;27;20134;-83
2022/04/30 08:37:51;;;;;;;17.20;13.27;;;;;;;;;;5125756;27;20036;-83
2022/04/30 08:40:17;;;;;;;16.67;13.23;;;;;;;;;;5115401;28;20118;-83
2022/04/30 08:42:43;;;;;;;15.63;13.20;;;;;;;;;;5125398;28;20439;-83
2022/04/30 08:45:10;;;;;;;15.30;12.88;;;;;;;;;;5116482;28;20024;-83
2022/04/30 08:47:42;;;;;;;15.23;12.07;;;;;;;;;;5125910;28;20390;-83
2022/04/30 08:50:12;;;;;;;16.40;12.55;;;;;;;;;;5136416;27;20023;-83
2022/04/30 08:52:38;;;;;;;16.98;13.52;;;;;;;;;;5134683;28;20035;-82
2022/04/30 08:55:05;;;;;;;17.88;13.55;;;;;;;;;;5127152;28;20035;-82
2022/04/30 08:57:31;;;;;;;16.40;12.88;;;;;;;;;;5115844;28;20030;-82
2022/04/30 08:59:58;;;;;;;16.90;13.15;;;;;;;;;;5118124;28;20024;-83
2022/04/30 09:02:25;;;;;;;15.23;13.10;;;;;;;;;;5117225;28;20035;-82
2022/04/30 09:04:51;;;;;;;17.35;12.18;;;;;;;;;;5118875;28;20055;-83
2022/04/30 09:07:18;;;;;;;14.35;12.40;;;;;;;;;;5118966;27;20144;-83
2022/04/30 09:09:44;;;;;;;14.90;12.70;;;;;;;;;;5118188;28;20473;-83
2022/04/30 09:12:11;;;;;;;14.35;10.90;;;;;;;;;;5118020;28;20401;-83
2022/04/30 09:14:40;;;;;;;12.77;11.48;;;;;;;;;;5119110;27;20027;-82
2022/04/30 09:17:10;;;;;;;13.52;10.88;;;;;;;;;;5129669;27;20105;-83
2022/04/30 09:19:45;;;;;;;15.48;12.63;;;;;;;;;;5139775;27;20030;-82
2022/04/30 09:22:11;;;;;;;14.55;11.93;;;;;;;;;;5138252;27;20058;-82
2022/04/30 09:24:50;;;;;;;14.65;11.68;;;;;;;;;;5139449;27;20024;-83
2022/04/30 09:27:19;;;;;;;14.48;12.20;;;;;;;;;;5135985;27;20023;-82
2022/04/30 09:29:46;;;;;;;15.15;12.02;;;;;;;;;;5132845;27;20183;-82
2022/04/30 09:32:25;;;;;;;13.07;11.02;;;;;;;;;;5119230;28;20522;-82
2022/04/30 09:37:49;;;;;;;15.75;11.63;;;;;;;;;;5120230;28;20034;-82
2022/04/30 09:40:15;;;;;;;15.50;11.98;;;;;;;;;;5117688;28;20034;-83
2022/04/30 09:42:42;;;;;;;14.40;12.25;;;;;;;;;;5134611;27;20090;-83
2022/04/30 09:45:08;;;;;;;14.73;12.30;;;;;;;;;;5138041;27;20034;-83
2022/04/30 09:47:35;;;;;;;13.30;11.07;;;;;;;;;;5125884;27;20050;-82
2022/04/30 09:55:35;;;;;;;16.40;12.18;;;;;;;;;;5145281;27;20042;-82
2022/04/30 09:58:03;;;;;;;16.98;12.45;;;;;;;;;;5120651;28;20058;-83
2022/04/30 10:00:31;;;;;;;13.02;11.52;;;;;;;;;;5129278;28;20186;-83
2022/04/30 10:02:59;;;;;;;14.35;11.10;;;;;;;;;;5156271;27;20035;-83
2022/04/30 10:05:25;;;;;;;13.38;10.48;;;;;;;;;;5140425;27;20034;-82
2022/04/30 10:07:51;;;;;;;13.68;10.18;;;;;;;;;;5139885;28;20012;-83
2022/04/30 10:10:21;;;;;;;13.40;10.73;;;;;;;;;;5139402;28;20059;-83
2022/04/30 10:12:54;;;;;;;12.85;10.98;;;;;;;;;;5139441;27;20020;-83
2022/04/30 10:15:24;;;;;;;12.90;11.05;;;;;;;;;;5139479;28;20016;-83
2022/04/30 10:17:57;;;;;;;13.07;10.23;;;;;;;;;;5139549;28;20041;-83
2022/04/30 10:20:29;;;;;;;13.55;10.93;;;;;;;;;;5125221;28;20023;-82
2022/04/30 10:22:59;;;;;;;13.57;10.23;;;;;;;;;;5136306;27;20030;-82
2022/04/30 10:25:33;;;;;;;13.45;10.30;;;;;;;;;;5121949;27;20031;-82
2022/04/30 10:27:59;;;;;;;12.80;10.05;;;;;;;;;;5120056;28;20028;-82
2022/04/30 10:30:27;;;;;;;13.32;8.82;;;;;;;;;;5119599;28;20024;-82
2022/04/30 10:33:04;;;;;;;12.52;9.38;;;;;;;;;;5120357;27;20054;-79
2022/04/30 10:35:37;;;;;;;12.57;8.93;;;;;;;;;;5136471;27;20031;-79
2022/04/30 10:38:19;;;;;;;11.68;8.68;;;;;;;;;;5138780;27;20130;-80
2022/04/30 10:40:49;;;;;;;13.63;10.23;;;;;;;;;;5119308;27;20031;-82
2022/04/30 10:43:20;;;;;;;11.48;8.95;;;;;;;;;;5118211;28;20024;-82
2022/04/30 10:45:46;;;;;;;12.82;9.60;;;;;;;;;;5118816;28;20019;-83
2022/04/30 10:48:12;;;;;;;11.70;9.05;;;;;;;;;;5133557;27;20020;-82
2022/04/30 10:50:40;;;;;;;13.45;9.27;;;;;;;;;;5139387;27;20031;-82
2022/04/30 10:53:08;;;;;;;12.95;9.25;;;;;;;;;;5139269;27;20105;-82
2022/04/30 10:55:35;;;;;;;12.07;9.05;;;;;;;;;;5138394;27;20015;-81
2022/04/30 10:58:01;;;;;;;11.82;9.20;;;;;;;;;;5140136;27;20097;-82
2022/04/30 11:00:27;;;;;;;13.07;9.68;;;;;;;;;;5149789;27;20027;-82
2022/04/30 11:02:53;;;;;;;11.80;9.18;;;;;;;;;;5149115;27;20035;-82
2022/04/30 11:05:19;;;;;;;13.20;9.70;;;;;;;;;;5151894;27;20023;-82
2022/04/30 11:07:46;;;;;;;11.63;8.55;;;;;;;;;;5158126;27;20034;-83
2022/04/30 11:10:12;;;;;;;12.95;9.82;;;;;;;;;;5158221;27;20044;-83
2022/04/30 11:12:38;;;;;;;12.07;9.25;;;;;;;;;;5142782;27;20031;-82
2022/04/30 11:15:04;;;;;;;10.07;9.07;;;;;;;;;;5145065;27;20051;-82
2022/04/30 11:17:31;;;;;;;11.80;9.35;;;;;;;;;;5149584;27;20023;-82
2022/04/30 11:19:57;;;;;;;12.82;7.53;;;;;;;;;;5143701;27;20016;-82
2022/04/30 11:22:23;;;;;;;11.82;8.43;;;;;;;;;;5127425;27;20064;-82
2022/04/30 11:24:50;;;;;;;11.50;7.60;;;;;;;;;;5138463;27;20026;-82
2022/04/30 11:27:16;;;;;;;12.18;7.90;;;;;;;;;;5138648;27;20613;-82
2022/04/30 11:29:49;;;;;;;12.38;7.97;;;;;;;;;;5138826;27;20024;-82
2022/04/30 11:32:22;;;;;;;10.43;7.50;;;;;;;;;;5126531;27;20032;-82
2022/04/30 11:34:48;;;;;;;10.60;7.80;;;;;;;;;;5128725;27;20383;-82
2022/04/30 11:37:14;;;;;;;9.50;7.45;;;;;;;;;;5133679;27;20023;-82
2022/04/30 11:39:40;;;;;;;11.45;7.47;;;;;;;;;;5132702;27;20607;-82
2022/04/30 11:42:06;;;;;;;9.75;7.28;;;;;;;;;;5139225;27;20039;-81
2022/04/30 11:44:32;;;;;;;11.43;7.85;;;;;;;;;;5138393;27;20023;-82
2022/04/30 11:46:58;;;;;;;9.65;7.55;;;;;;;;;;5138215;27;20015;-82
2022/04/30 11:49:25;;;;;;;11.40;7.50;;;;;;;;;;5137636;27;20030;-83
2022/04/30 11:51:52;;;;;;;10.00;7.03;;;;;;;;;;5135276;27;20023;-83
2022/04/30 11:54:19;;;;;;;10.35;6.05;;;;;;;;;;5131125;27;20446;-81
2022/04/30 11:56:46;;;;;;;7.50;5.93;;;;;;;;;;5118919;28;20051;-82
2022/04/30 11:59:12;;;;;;;8.18;5.03;;;;;;;;;;5116785;28;20051;-81
2022/04/30 12:01:39;;;;;;;9.57;6.68;;;;;;;;;;5125638;27;20030;-82
2022/04/30 12:04:08;;;;;;;8.90;5.93;;;;;;;;;;5116772;27;20496;-82
2022/04/30 12:06:34;;;;;;;7.38;5.25;;;;;;;;;;5137027;27;20019;-82
2022/04/30 12:09:00;;;;;;;7.75;5.18;;;;;;;;;;5136571;28;20359;-82
2022/04/30 12:11:27;;;;;;;8.98;5.18;;;;;;;;;;5140097;28;20039;-81
2022/04/30 12:13:56;;;;;;;7.45;5.35;;;;;;;;;;5141984;28;20031;-83
2022/04/30 12:16:22;;;;;;;7.53;5.25;;;;;;;;;;5139212;28;20091;-83
2022/04/30 12:24:43;;;;;;;7.10;4.70;;;;;;;;;;5126251;28;20041;-82
2022/04/30 12:27:10;;;;;;;7.18;4.68;;;;;;;;;;5120294;28;20521;-83
2022/04/30 12:29:37;;;;;;;9.23;4.93;;;;;;;;;;5137321;28;20022;-82
2022/04/30 12:32:07;;;;;;;7.35;5.18;;;;;;;;;;5139001;28;20051;-84
2022/04/30 12:34:40;;;;;;;6.70;4.78;;;;;;;;;;5137959;28;20118;-83
2022/04/30 12:37:07;;;;;;;9.40;4.80;;;;;;;;;;5151485;27;20022;-83
2022/04/30 12:39:33;;;;;;;8.98;5.07;;;;;;;;;;5146753;27;20038;-82
2022/04/30 12:41:59;;;;;;;6.85;5.35;;;;;;;;;;5145888;27;20026;-82
2022/04/30 12:44:28;;;;;;;6.80;4.95;;;;;;;;;;5148547;27;20023;-82
2022/04/30 12:46:55;;;;;;;6.88;4.97;;;;;;;;;;5139002;27;20023;-83
2022/04/30 12:49:21;;;;;;;7.75;5.25;;;;;;;;;;5137367;27;20034;-83
2022/04/30 12:51:50;;;;;;;6.55;4.65;;;;;;;;;;5144241;27;20015;-82
2022/04/30 12:54:16;;;;;;;9.05;4.70;;;;;;;;;;5143787;27;20028;-82
2022/04/30 12:56:44;;;;;;;6.13;4.13;;;;;;;;;;5125179;28;20036;-82
2022/04/30 12:59:10;;;;;;;8.35;4.80;;;;;;;;;;5127580;28;20016;-82
2022/04/30 13:01:40;;;;;;;6.10;4.30;;;;;;;;;;5139246;27;20031;-83
2022/04/30 13:04:06;;;;;;;7.18;4.50;;;;;;;;;;5149339;27;20034;-83
2022/04/30 13:06:32;;;;;;;6.50;4.40;;;;;;;;;;5145295;27;20027;-83
2022/04/30 13:14:28;;;;;;;6.35;4.30;;;;;;;;;;5123245;27;20064;-82
2022/04/30 13:16:54;;;;;;;9.63;5.18;;;;;;;;;;5124877;28;20058;-83
2022/04/30 13:19:20;;;;;;;7.72;4.72;;;;;;;;;;5127269;28;20028;-82
2022/04/30 13:21:46;;;;;;;6.15;4.25;;;;;;;;;;5126636;28;20092;-84
2022/04/30 13:24:15;;;;;;;8.30;4.40;;;;;;;;;;5141579;27;20019;-83
2022/04/30 13:26:42;;;;;;;7.57;3.85;;;;;;;;;;5149635;27;20027;-83
2022/04/30 13:29:10;;;;;;;9.95;4.07;;;;;;;;;;5148285;27;20038;-83
2022/04/30 13:31:37;;;;;;;6.88;4.47;;;;;;;;;;5144995;27;20083;-83
2022/04/30 13:34:03;;;;;;;7.13;4.15;;;;;;;;;;5131486;27;20111;-82
2022/04/30 13:36:31;;;;;;;6.53;3.85;;;;;;;;;;5129770;27;20345;-83
2022/04/30 13:38:58;;;;;;;6.40;3.70;;;;;;;;;;5140970;27;20050;-82
2022/04/30 13:41:24;;;;;;;6.00;3.90;;;;;;;;;;5141377;27;20051;-83
2022/04/30 13:43:51;;;;;;;6.60;3.80;;;;;;;;;;5125548;28;20494;-82
2022/04/30 13:46:17;;;;;;;6.75;3.63;;;;;;;;;;5127664;28;20049;-82
2022/04/30 13:48:43;;;;;;;6.03;3.47;;;;;;;;;;5143721;27;20024;-83
2022/04/30 13:51:09;;;;;;;6.28;3.70;;;;;;;;;;5143893;27;20046;-83
2022/04/30 13:53:35;;;;;;;6.30;4.20;;;;;;;;;;5134511;27;20133;-82
2022/04/30 13:56:02;;;;;;;7.53;3.42;;;;;;;;;;5140623;27;20015;-83
2022/04/30 13:58:28;;;;;;;5.82;3.47;;;;;;;;;;5144055;27;20037;-82
2022/04/30 14:00:54;;;;;;;5.55;3.50;;;;;;;;;;5124500;27;20027;-82
2022/04/30 14:03:21;;;;;;;5.60;3.50;;;;;;;;;;5122932;28;20215;-83
2022/04/30 14:05:47;;;;;;;6.40;3.50;;;;;;;;;;5126907;27;20016;-83
2022/04/30 14:08:14;;;;;;;5.90;3.30;;;;;;;;;;5128222;27;20035;-83
2022/04/30 14:10:40;;;;;;;5.88;3.33;;;;;;;;;;5142880;27;20039;-82
2022/04/30 14:15:56;;;;;;;6.15;3.90;;;;;;;;;;5091274;27;20032;-82
2022/04/30 14:18:25;;;;;;;5.35;3.55;;;;;;;;;;5131892;27;20494;-82
2022/04/30 14:20:52;;;;;;;8.35;3.60;;;;;;;;;;5137179;27;20020;-83
2022/04/30 14:23:19;;;;;;;5.97;3.53;;;;;;;;;;5125586;27;20491;-83
2022/04/30 14:25:45;;;;;;;5.35;3.50;;;;;;;;;;5143159;27;20030;-82
2022/04/30 14:28:11;;;;;;;6.28;3.47;;;;;;;;;;5141170;27;20039;-83
2022/04/30 14:30:45;;;;;;;5.82;3.38;;;;;;;;;;5124478;27;20071;-83
2022/04/30 14:33:11;;;;;;;6.22;3.90;;;;;;;;;;5127906;27;20199;-83
2022/04/30 14:35:38;;;;;;;6.15;4.05;;;;;;;;;;5132051;27;20031;-83
2022/04/30 14:38:15;;;;;;;6.47;4.00;;;;;;;;;;5142731;27;20115;-81
2022/04/30 14:40:44;;;;;;;6.57;3.88;;;;;;;;;;5140031;27;20039;-82
2022/04/30 14:43:11;;;;;;;7.40;4.07;;;;;;;;;;5137758;27;20023;-83
2022/04/30 14:45:39;;;;;;;7.75;3.90;;;;;;;;;;5143226;27;20027;-82
2022/04/30 14:48:06;;;;;;;5.63;3.63;;;;;;;;;;5138198;27;20088;-82
2022/04/30 14:50:32;;;;;;;6.93;3.75;;;;;;;;;;5130034;27;20078;-81
2022/04/30 14:52:59;;;;;;;5.82;3.83;;;;;;;;;;5130463;27;20030;-83
2022/04/30 14:55:29;;;;;;;8.77;4.93;;;;;;;;;;5132769;27;20575;-82
2022/04/30 14:57:55;;;;;;;6.55;3.97;;;;;;;;;;5135305;27;20100;-82
2022/04/30 15:00:21;;;;;;;7.15;3.78;;;;;;;;;;5128533;27;20228;-82
2022/04/30 15:02:47;;;;;;;6.07;4.00;;;;;;;;;;5121465;28;20023;-83
2022/04/30 15:05:14;;;;;;;7.15;4.20;;;;;;;;;;5119575;27;20020;-82
2022/04/30 15:07:40;;;;;;;6.20;3.95;;;;;;;;;;5138423;27;20058;-83
2022/04/30 15:10:06;;;;;;;6.93;3.88;;;;;;;;;;5138006;27;20097;-82
2022/04/30 15:12:34;;;;;;;6.60;4.40;;;;;;;;;;5141171;27;20023;-82